createdAt,value
2022-11-18T00:03:41.334Z,65.32
2022-11-18T00:08:44.601Z,65.57
2022-11-18T00:13:52.626Z,64.90
2022-11-18T00:18:55.524Z,65.15
2022-11-18T00:29:19.465Z,65.17
2022-11-18T00:34:22.713Z,65.31
2022-11-18T00:55:34.215Z,65.62
2022-11-18T01:05:58.839Z,65.66
2022-11-18T01:11:01.672Z,65.63
2022-11-18T01:16:04.534Z,65.49
2022-11-18T01:32:22.324Z,65.11
2022-11-18T01:37:15.783Z,65.06
2022-11-18T01:47:44.169Z,65.02
2022-11-18T01:58:13.213Z,65.02
2022-11-18T02:08:37.055Z,65.12
2022-11-18T02:13:39.842Z,65.09
2022-11-18T02:18:48.946Z,65.08
2022-11-18T02:24:22.110Z,65.19
2022-11-18T02:29:35.082Z,65.25
2022-11-18T02:34:47.083Z,65.36
2022-11-18T02:39:59.450Z,65.42
2022-11-18T02:50:37.597Z,65.65
2022-11-18T02:55:42.768Z,65.56
2022-11-18T03:00:45.964Z,65.54
2022-11-18T03:11:24.941Z,65.60
2022-11-18T03:16:33.020Z,65.74
2022-11-18T03:21:42.239Z,65.74
2022-11-18T03:26:54.938Z,65.84
2022-11-18T03:32:04.805Z,65.84
2022-11-18T03:37:12.725Z,65.98
2022-11-18T03:42:27.292Z,66.17
2022-11-18T03:52:56.965Z,66.12
2022-11-18T03:58:06.466Z,66.21
2022-11-18T04:08:36.788Z,66.46
2022-11-18T04:13:39.953Z,66.81
2022-11-18T04:18:42.699Z,66.86
2022-11-18T04:23:51.320Z,66.76
2022-11-18T04:28:54.261Z,66.72
2022-11-18T04:33:57.207Z,67.04
2022-11-18T04:39:06.557Z,67.24
2022-11-18T04:44:09.274Z,67.13
2022-11-18T04:49:15.357Z,67.42
2022-11-18T04:54:24.418Z,67.45
2022-11-18T04:59:29.320Z,67.38
2022-11-18T05:04:34.468Z,67.52
2022-11-18T05:14:59.839Z,67.25
2022-11-18T05:30:37.431Z,67.18
2022-11-18T05:35:40.218Z,67.25
2022-11-18T05:40:43.875Z,67.28
2022-11-18T05:45:53.072Z,67.30
2022-11-18T05:50:56.343Z,67.38
2022-11-18T05:56:06.046Z,67.35
2022-11-18T06:01:17.752Z,67.36
2022-11-18T06:06:23.605Z,67.23
2022-11-18T06:11:26.833Z,67.22
2022-11-18T06:16:40.966Z,67.01
2022-11-18T06:21:44.706Z,67.06
2022-11-18T06:32:22.238Z,67.06
2022-11-18T06:37:26.263Z,67.06
2022-11-18T06:42:30.247Z,67.23
2022-11-18T06:47:39.459Z,67.40
2022-11-18T06:52:42.250Z,67.50
2022-11-18T06:57:45.352Z,67.68
2022-11-18T07:02:54.423Z,67.64
2022-11-18T07:13:07.338Z,68.00
2022-11-18T07:18:16.175Z,67.85
2022-11-18T07:23:18.976Z,67.83
2022-11-18T07:39:09.223Z,67.59
2022-11-18T07:49:38.728Z,67.45
2022-11-18T07:54:41.655Z,67.51
2022-11-18T07:59:44.497Z,67.49
2022-11-18T08:04:52.577Z,67.50
2022-11-18T08:15:22.799Z,67.42
2022-11-18T08:20:25.576Z,67.39
2022-11-18T08:30:47.420Z,67.13
2022-11-18T08:35:50.386Z,66.78
2022-11-18T08:40:53.613Z,65.31
2022-11-18T08:46:02.713Z,64.28
2022-11-18T09:17:33.444Z,61.79
2022-11-18T09:22:38.582Z,59.50
2022-11-18T09:27:41.625Z,56.98
2022-11-18T09:32:49.868Z,56.43
2022-11-18T09:43:27.495Z,58.65
2022-11-18T09:48:31.481Z,56.58
2022-11-18T09:53:34.544Z,52.60
2022-11-18T09:58:44.642Z,50.58
2022-11-18T10:14:59.820Z,54.75
2022-11-18T10:35:42.167Z,48.56
2022-11-18T10:51:06.354Z,48.57
2022-11-18T11:17:05.087Z,49.42
2022-11-18T11:38:59.967Z,52.94
2022-11-18T11:44:23.517Z,53.19
2022-11-18T11:49:45.482Z,52.57
2022-11-18T11:55:03.994Z,52.55
2022-11-18T12:21:57.596Z,53.18
2022-11-18T12:37:48.688Z,53.58
2022-11-18T13:13:56.121Z,55.50
2022-11-18T13:19:09.431Z,55.21
2022-11-18T13:44:45.115Z,60.69
2022-11-18T13:50:03.851Z,61.13
2022-11-18T13:55:19.735Z,61.09
2022-11-18T14:05:55.305Z,61.69
2022-11-18T14:10:59.752Z,61.57
2022-11-18T14:16:05.009Z,62.64
2022-11-18T14:21:14.516Z,62.97
2022-11-18T14:26:31.468Z,62.80
2022-11-18T14:31:34.341Z,62.86
2022-11-18T14:36:42.678Z,63.71
2022-11-18T14:41:45.695Z,63.45
2022-11-18T14:46:50.870Z,64.25
2022-11-18T14:52:00.971Z,65.10
2022-11-18T15:02:23.956Z,64.53
2022-11-18T15:07:26.810Z,65.35
2022-11-18T15:12:29.696Z,65.85
2022-11-18T15:22:58.546Z,64.89
2022-11-18T15:28:01.347Z,65.30
2022-11-18T15:33:05.399Z,66.22
2022-11-18T15:38:14.129Z,66.28
2022-11-18T15:43:17.106Z,65.88
2022-11-18T15:48:19.983Z,66.71
2022-11-18T15:58:36.252Z,66.72
2022-11-18T16:09:08.298Z,65.74
2022-11-18T16:14:13.225Z,65.80
2022-11-18T16:19:18.126Z,66.19
2022-11-18T16:24:29.277Z,66.21
2022-11-18T16:29:32.057Z,65.84
2022-11-18T16:34:34.954Z,66.50
2022-11-18T16:39:43.047Z,66.32
2022-11-18T16:44:46.079Z,65.85
2022-11-18T16:49:48.874Z,66.14
2022-11-18T16:54:57.434Z,66.26
2022-11-18T17:00:02.196Z,66.01
2022-11-18T17:05:05.255Z,66.37
2022-11-18T17:10:13.608Z,67.03
2022-11-18T17:15:16.487Z,66.65
2022-11-18T17:20:19.477Z,67.12
2022-11-18T17:25:29.558Z,67.14
2022-11-18T17:30:32.309Z,66.60
2022-11-18T17:35:35.075Z,67.13
2022-11-18T17:46:06.098Z,66.96
2022-11-18T17:51:08.837Z,67.99
2022-11-18T18:12:08.878Z,67.88
2022-11-18T18:17:12.790Z,68.44
2022-11-18T18:32:52.376Z,68.71
2022-11-18T18:59:13.311Z,69.61
2022-11-18T19:09:39.169Z,69.74
2022-11-18T19:14:42.990Z,70.15
2022-11-18T19:19:45.942Z,70.44
2022-11-18T19:24:57.441Z,70.21
2022-11-18T19:30:01.059Z,69.61
2022-11-18T19:40:26.579Z,69.11
2022-11-18T19:50:51.691Z,68.97
2022-11-18T19:55:56.621Z,68.95
2022-11-18T20:01:00.603Z,69.42
2022-11-18T20:06:11.215Z,69.25
2022-11-18T20:11:15.671Z,68.96
2022-11-18T20:16:21.355Z,69.40
2022-11-18T20:21:30.514Z,69.34
2022-11-18T20:26:35.310Z,69.25
2022-11-18T20:31:38.504Z,70.01
2022-11-18T20:36:47.597Z,70.25
2022-11-18T20:47:13.246Z,69.39
2022-11-18T20:52:17.190Z,69.75
2022-11-18T21:13:14.015Z,69.35
2022-11-18T21:29:03.150Z,69.18
2022-11-18T21:34:07.493Z,69.76
2022-11-18T21:39:12.971Z,70.18
2022-11-18T21:44:21.261Z,70.19
2022-11-18T21:49:24.587Z,69.84
2022-11-18T21:54:27.574Z,70.37
2022-11-18T21:59:37.600Z,70.44
2022-11-18T22:04:42.998Z,69.97
2022-11-18T22:09:46.687Z,70.17
2022-11-18T22:14:55.802Z,70.23
2022-11-18T22:19:59.522Z,70.12
2022-11-18T22:25:02.275Z,70.55
2022-11-18T22:35:24.659Z,69.88
2022-11-18T22:40:28.715Z,70.43
2022-11-18T22:45:32.533Z,70.87
2022-11-18T22:50:48.859Z,70.82
2022-11-18T23:06:34.387Z,69.76
2022-11-18T23:11:37.148Z,70.02
2022-11-18T23:16:41.861Z,70.42
2022-11-18T23:21:51.064Z,70.49
2022-11-18T23:26:53.790Z,70.17
2022-11-18T23:31:56.672Z,70.53
2022-11-18T23:37:05.616Z,70.43
2022-11-18T23:42:09.521Z,70.01
2022-11-18T23:47:12.246Z,70.38
2022-11-18T23:52:21.265Z,70.18
2022-11-18T23:57:24.022Z,69.72
